sensor_id;sensor_type;location;lat;lon;timestamp;temperature;humidity
21481;DHT22;10902;48.158;8.634;2024-01-25T00:00:24;6.20;99.90
21481;DHT22;10902;48.158;8.634;2024-01-25T00:03:09;6.10;99.90
21481;DHT22;10902;48.158;8.634;2024-01-25T00:05:55;6.10;99.90
21481;DHT22;10902;48.158;8.634;2024-01-25T00:08:40;6.00;99.90
21481;DHT22;10902;48.158;8.634;2024-01-25T00:11:26;5.90;99.90
21481;DHT22;10902;48.158;8.634;2024-01-25T00:14:12;6.10;99.90
21481;DHT22;10902;48.158;8.634;2024-01-25T00:16:57;6.30;99.90
21481;DHT22;10902;48.158;8.634;2024-01-25T00:19:43;6.10;99.90
21481;DHT22;10902;48.158;8.634;2024-01-25T00:22:28;6.20;99.90
21481;DHT22;10902;48.158;8.634;2024-01-25T00:25:14;6.30;99.90
21481;DHT22;10902;48.158;8.634;2024-01-25T00:28:00;6.40;99.90
21481;DHT22;10902;48.158;8.634;2024-01-25T00:30:45;6.60;99.90
21481;DHT22;10902;48.158;8.634;2024-01-25T00:33:31;6.60;99.90
21481;DHT22;10902;48.158;8.634;2024-01-25T00:36:17;6.60;99.90
21481;DHT22;10902;48.158;8.634;2024-01-25T00:39:02;6.40;99.90
21481;DHT22;10902;48.158;8.634;2024-01-25T00:41:51;6.40;99.90
21481;DHT22;10902;48.158;8.634;2024-01-25T00:44:37;6.40;99.90
21481;DHT22;10902;48.158;8.634;2024-01-25T00:47:23;6.40;99.90
21481;DHT22;10902;48.158;8.634;2024-01-25T00:50:08;6.30;99.90
21481;DHT22;10902;48.158;8.634;2024-01-25T00:52:54;6.50;99.90
21481;DHT22;10902;48.158;8.634;2024-01-25T00:55:40;6.60;99.90
21481;DHT22;10902;48.158;8.634;2024-01-25T00:58:26;6.60;99.90
21481;DHT22;10902;48.158;8.634;2024-01-25T01:01:12;6.70;99.90
21481;DHT22;10902;48.158;8.634;2024-01-25T01:03:58;6.70;99.90
21481;DHT22;10902;48.158;8.634;2024-01-25T01:06:44;6.70;99.90
21481;DHT22;10902;48.158;8.634;2024-01-25T01:09:30;6.90;99.90
21481;DHT22;10902;48.158;8.634;2024-01-25T01:12:16;6.80;99.90
21481;DHT22;10902;48.158;8.634;2024-01-25T01:15:02;6.60;99.90
21481;DHT22;10902;48.158;8.634;2024-01-25T01:17:47;6.60;99.90
21481;DHT22;10902;48.158;8.634;2024-01-25T01:20:33;6.70;99.90
21481;DHT22;10902;48.158;8.634;2024-01-25T01:23:19;6.80;99.90
21481;DHT22;10902;48.158;8.634;2024-01-25T01:26:04;7.00;99.90
21481;DHT22;10902;48.158;8.634;2024-01-25T01:28:50;7.00;99.90
21481;DHT22;10902;48.158;8.634;2024-01-25T01:31:36;6.80;99.90
21481;DHT22;10902;48.158;8.634;2024-01-25T01:34:22;6.80;99.90
21481;DHT22;10902;48.158;8.634;2024-01-25T01:37:07;6.70;99.90
21481;DHT22;10902;48.158;8.634;2024-01-25T01:39:53;6.60;99.90
21481;DHT22;10902;48.158;8.634;2024-01-25T01:42:41;6.60;99.90
21481;DHT22;10902;48.158;8.634;2024-01-25T01:45:27;6.50;99.90
21481;DHT22;10902;48.158;8.634;2024-01-25T01:48:12;6.60;99.90
21481;DHT22;10902;48.158;8.634;2024-01-25T01:50:59;6.70;99.90
21481;DHT22;10902;48.158;8.634;2024-01-25T01:53:45;6.70;99.90
21481;DHT22;10902;48.158;8.634;2024-01-25T01:56:31;6.80;99.90
21481;DHT22;10902;48.158;8.634;2024-01-25T01:59:17;6.70;99.90
21481;DHT22;10902;48.158;8.634;2024-01-25T02:02:03;6.40;99.90
21481;DHT22;10902;48.158;8.634;2024-01-25T02:04:48;6.30;99.90
21481;DHT22;10902;48.158;8.634;2024-01-25T02:07:34;6.30;99.90
21481;DHT22;10902;48.158;8.634;2024-01-25T02:10:20;6.20;99.90
21481;DHT22;10902;48.158;8.634;2024-01-25T02:13:06;6.10;99.90
21481;DHT22;10902;48.158;8.634;2024-01-25T02:15:51;6.00;99.90
21481;DHT22;10902;48.158;8.634;2024-01-25T02:18:38;6.00;99.90
21481;DHT22;10902;48.158;8.634;2024-01-25T02:21:23;6.00;99.90
21481;DHT22;10902;48.158;8.634;2024-01-25T02:24:09;6.20;99.90
21481;DHT22;10902;48.158;8.634;2024-01-25T02:26:55;6.10;99.90
21481;DHT22;10902;48.158;8.634;2024-01-25T02:29:40;6.00;99.90
21481;DHT22;10902;48.158;8.634;2024-01-25T02:32:26;6.10;99.90
21481;DHT22;10902;48.158;8.634;2024-01-25T02:35:12;6.10;99.90
21481;DHT22;10902;48.158;8.634;2024-01-25T02:37:57;6.20;99.90
21481;DHT22;10902;48.158;8.634;2024-01-25T02:40:43;6.20;99.90
21481;DHT22;10902;48.158;8.634;2024-01-25T02:43:28;6.30;99.90
21481;DHT22;10902;48.158;8.634;2024-01-25T02:46:14;6.30;99.90
21481;DHT22;10902;48.158;8.634;2024-01-25T02:49:00;6.30;99.90
21481;DHT22;10902;48.158;8.634;2024-01-25T02:51:45;6.30;99.90
21481;DHT22;10902;48.158;8.634;2024-01-25T02:54:34;6.30;99.90
21481;DHT22;10902;48.158;8.634;2024-01-25T02:57:23;6.20;99.90
21481;DHT22;10902;48.158;8.634;2024-01-25T03:00:09;6.20;99.90
21481;DHT22;10902;48.158;8.634;2024-01-25T03:02:54;6.20;99.90
21481;DHT22;10902;48.158;8.634;2024-01-25T03:05:40;6.10;99.90
21481;DHT22;10902;48.158;8.634;2024-01-25T03:08:26;6.10;99.90
21481;DHT22;10902;48.158;8.634;2024-01-25T03:11:11;6.10;99.90
21481;DHT22;10902;48.158;8.634;2024-01-25T03:13:57;6.00;99.90
21481;DHT22;10902;48.158;8.634;2024-01-25T03:16:42;6.00;99.90
21481;DHT22;10902;48.158;8.634;2024-01-25T03:19:29;6.00;99.90
21481;DHT22;10902;48.158;8.634;2024-01-25T03:22:14;6.00;99.90
21481;DHT22;10902;48.158;8.634;2024-01-25T03:25:00;6.00;99.90
21481;DHT22;10902;48.158;8.634;2024-01-25T03:27:46;6.00;99.90
21481;DHT22;10902;48.158;8.634;2024-01-25T03:30:31;6.00;99.90
21481;DHT22;10902;48.158;8.634;2024-01-25T03:33:17;6.00;99.90
21481;DHT22;10902;48.158;8.634;2024-01-25T03:36:03;6.00;99.90
21481;DHT22;10902;48.158;8.634;2024-01-25T03:38:49;6.10;99.90
21481;DHT22;10902;48.158;8.634;2024-01-25T03:41:34;6.00;99.90
21481;DHT22;10902;48.158;8.634;2024-01-25T03:44:20;6.10;99.90
21481;DHT22;10902;48.158;8.634;2024-01-25T03:47:06;6.10;99.90
21481;DHT22;10902;48.158;8.634;2024-01-25T03:49:51;6.10;99.90
21481;DHT22;10902;48.158;8.634;2024-01-25T03:52:37;6.10;99.90
21481;DHT22;10902;48.158;8.634;2024-01-25T03:55:23;6.10;99.90
21481;DHT22;10902;48.158;8.634;2024-01-25T03:58:08;6.00;99.90
21481;DHT22;10902;48.158;8.634;2024-01-25T04:00:55;5.90;99.90
21481;DHT22;10902;48.158;8.634;2024-01-25T04:03:41;5.90;99.90
21481;DHT22;10902;48.158;8.634;2024-01-25T04:06:26;5.90;99.90
21481;DHT22;10902;48.158;8.634;2024-01-25T04:09:12;5.90;99.90
21481;DHT22;10902;48.158;8.634;2024-01-25T04:11:59;5.80;99.90
21481;DHT22;10902;48.158;8.634;2024-01-25T04:14:45;5.80;99.90
21481;DHT22;10902;48.158;8.634;2024-01-25T04:17:30;5.80;99.90
21481;DHT22;10902;48.158;8.634;2024-01-25T04:20:16;5.70;99.90
21481;DHT22;10902;48.158;8.634;2024-01-25T04:23:01;5.80;99.90
21481;DHT22;10902;48.158;8.634;2024-01-25T04:25:47;5.90;99.90
21481;DHT22;10902;48.158;8.634;2024-01-25T04:28:34;5.90;99.90
21481;DHT22;10902;48.158;8.634;2024-01-25T04:31:19;6.00;99.90
21481;DHT22;10902;48.158;8.634;2024-01-25T04:34:05;6.00;99.90
21481;DHT22;10902;48.158;8.634;2024-01-25T04:36:51;6.00;99.90
21481;DHT22;10902;48.158;8.634;2024-01-25T04:39:36;6.00;99.90
21481;DHT22;10902;48.158;8.634;2024-01-25T04:42:22;6.10;99.90
21481;DHT22;10902;48.158;8.634;2024-01-25T04:45:08;6.10;99.90
21481;DHT22;10902;48.158;8.634;2024-01-25T04:47:53;6.00;99.90
21481;DHT22;10902;48.158;8.634;2024-01-25T04:50:39;6.00;99.90
21481;DHT22;10902;48.158;8.634;2024-01-25T04:53:25;6.00;99.90
21481;DHT22;10902;48.158;8.634;2024-01-25T04:56:10;6.00;99.90
21481;DHT22;10902;48.158;8.634;2024-01-25T04:58:56;6.00;99.90
21481;DHT22;10902;48.158;8.634;2024-01-25T05:01:41;6.00;99.90
21481;DHT22;10902;48.158;8.634;2024-01-25T05:04:28;6.00;99.90
21481;DHT22;10902;48.158;8.634;2024-01-25T05:07:14;6.00;99.90
21481;DHT22;10902;48.158;8.634;2024-01-25T05:10:00;5.90;99.90
21481;DHT22;10902;48.158;8.634;2024-01-25T05:12:45;5.90;99.90
21481;DHT22;10902;48.158;8.634;2024-01-25T05:15:31;5.90;99.90
21481;DHT22;10902;48.158;8.634;2024-01-25T05:18:16;5.90;99.90
21481;DHT22;10902;48.158;8.634;2024-01-25T05:21:02;5.90;99.90
21481;DHT22;10902;48.158;8.634;2024-01-25T05:23:48;5.90;99.90
21481;DHT22;10902;48.158;8.634;2024-01-25T05:26:33;5.90;99.90
21481;DHT22;10902;48.158;8.634;2024-01-25T05:29:19;5.80;99.90
21481;DHT22;10902;48.158;8.634;2024-01-25T05:32:05;5.90;99.90
21481;DHT22;10902;48.158;8.634;2024-01-25T05:34:50;5.90;99.90
21481;DHT22;10902;48.158;8.634;2024-01-25T05:37:36;5.80;99.90
21481;DHT22;10902;48.158;8.634;2024-01-25T05:40:21;5.90;99.90
21481;DHT22;10902;48.158;8.634;2024-01-25T05:43:07;5.80;99.90
21481;DHT22;10902;48.158;8.634;2024-01-25T05:45:53;5.80;99.90
21481;DHT22;10902;48.158;8.634;2024-01-25T05:48:39;5.80;99.90
21481;DHT22;10902;48.158;8.634;2024-01-25T05:51:25;5.80;99.90
21481;DHT22;10902;48.158;8.634;2024-01-25T05:54:10;5.80;99.90
21481;DHT22;10902;48.158;8.634;2024-01-25T05:56:56;5.70;99.90
21481;DHT22;10902;48.158;8.634;2024-01-25T05:59:41;5.70;99.90
21481;DHT22;10902;48.158;8.634;2024-01-25T06:02:27;5.60;99.90
21481;DHT22;10902;48.158;8.634;2024-01-25T06:05:12;5.60;99.90
21481;DHT22;10902;48.158;8.634;2024-01-25T06:07:58;5.60;99.90
21481;DHT22;10902;48.158;8.634;2024-01-25T06:10:43;5.60;99.90
21481;DHT22;10902;48.158;8.634;2024-01-25T06:13:29;5.60;99.90
21481;DHT22;10902;48.158;8.634;2024-01-25T06:16:16;5.60;99.90
21481;DHT22;10902;48.158;8.634;2024-01-25T06:19:03;5.50;99.90
21481;DHT22;10902;48.158;8.634;2024-01-25T06:21:49;5.40;99.90
21481;DHT22;10902;48.158;8.634;2024-01-25T06:24:35;5.50;99.90
21481;DHT22;10902;48.158;8.634;2024-01-25T06:27:21;5.50;99.90
21481;DHT22;10902;48.158;8.634;2024-01-25T06:30:07;5.50;99.90
21481;DHT22;10902;48.158;8.634;2024-01-25T06:32:52;5.50;99.90
21481;DHT22;10902;48.158;8.634;2024-01-25T06:35:38;5.40;99.90
21481;DHT22;10902;48.158;8.634;2024-01-25T06:38:24;5.50;99.90
21481;DHT22;10902;48.158;8.634;2024-01-25T06:41:09;5.50;99.90
21481;DHT22;10902;48.158;8.634;2024-01-25T06:43:55;5.40;99.90
21481;DHT22;10902;48.158;8.634;2024-01-25T06:46:40;5.40;99.90
21481;DHT22;10902;48.158;8.634;2024-01-25T06:49:26;5.50;99.90
21481;DHT22;10902;48.158;8.634;2024-01-25T06:52:12;5.50;99.90
21481;DHT22;10902;48.158;8.634;2024-01-25T06:54:57;5.60;99.90
21481;DHT22;10902;48.158;8.634;2024-01-25T06:57:43;5.50;99.90
21481;DHT22;10902;48.158;8.634;2024-01-25T07:00:28;5.40;99.90
21481;DHT22;10902;48.158;8.634;2024-01-25T07:03:14;5.30;99.90
21481;DHT22;10902;48.158;8.634;2024-01-25T07:06:00;5.30;99.90
21481;DHT22;10902;48.158;8.634;2024-01-25T07:08:46;5.20;99.90
21481;DHT22;10902;48.158;8.634;2024-01-25T07:11:31;5.20;99.90
21481;DHT22;10902;48.158;8.634;2024-01-25T07:14:17;5.10;99.90
21481;DHT22;10902;48.158;8.634;2024-01-25T07:17:03;5.10;99.90
21481;DHT22;10902;48.158;8.634;2024-01-25T07:19:49;5.10;99.90
21481;DHT22;10902;48.158;8.634;2024-01-25T07:22:34;5.20;99.90
21481;DHT22;10902;48.158;8.634;2024-01-25T07:25:20;5.20;99.90
21481;DHT22;10902;48.158;8.634;2024-01-25T07:28:06;5.20;99.90
21481;DHT22;10902;48.158;8.634;2024-01-25T07:30:52;5.20;99.90
21481;DHT22;10902;48.158;8.634;2024-01-25T07:33:37;5.20;99.90
21481;DHT22;10902;48.158;8.634;2024-01-25T07:36:23;5.20;99.90
21481;DHT22;10902;48.158;8.634;2024-01-25T07:39:09;5.20;99.90
21481;DHT22;10902;48.158;8.634;2024-01-25T07:41:56;5.20;99.90
21481;DHT22;10902;48.158;8.634;2024-01-25T07:44:42;5.30;99.90
21481;DHT22;10902;48.158;8.634;2024-01-25T07:47:27;5.30;99.90
21481;DHT22;10902;48.158;8.634;2024-01-25T07:50:13;5.20;99.90
21481;DHT22;10902;48.158;8.634;2024-01-25T07:52:58;5.20;99.90
21481;DHT22;10902;48.158;8.634;2024-01-25T07:55:46;5.20;99.90
21481;DHT22;10902;48.158;8.634;2024-01-25T07:58:31;5.10;99.90
21481;DHT22;10902;48.158;8.634;2024-01-25T08:01:18;5.10;99.90
21481;DHT22;10902;48.158;8.634;2024-01-25T08:04:04;5.20;99.90
21481;DHT22;10902;48.158;8.634;2024-01-25T08:06:51;5.10;99.90
21481;DHT22;10902;48.158;8.634;2024-01-25T08:09:37;5.00;99.90
21481;DHT22;10902;48.158;8.634;2024-01-25T08:12:22;5.10;99.90
21481;DHT22;10902;48.158;8.634;2024-01-25T08:15:08;5.00;99.90
21481;DHT22;10902;48.158;8.634;2024-01-25T08:17:54;5.20;99.90
21481;DHT22;10902;48.158;8.634;2024-01-25T08:20:40;5.20;99.90
21481;DHT22;10902;48.158;8.634;2024-01-25T08:23:27;5.20;99.90
21481;DHT22;10902;48.158;8.634;2024-01-25T08:26:13;5.30;99.90
21481;DHT22;10902;48.158;8.634;2024-01-25T08:28:59;5.30;99.90
21481;DHT22;10902;48.158;8.634;2024-01-25T08:31:44;5.30;99.90
21481;DHT22;10902;48.158;8.634;2024-01-25T08:34:31;5.40;99.90
21481;DHT22;10902;48.158;8.634;2024-01-25T08:37:17;5.40;99.90
21481;DHT22;10902;48.158;8.634;2024-01-25T08:40:02;5.40;99.90
21481;DHT22;10902;48.158;8.634;2024-01-25T08:42:49;5.50;99.90
21481;DHT22;10902;48.158;8.634;2024-01-25T08:45:35;5.50;99.90
21481;DHT22;10902;48.158;8.634;2024-01-25T08:48:20;5.50;99.90
21481;DHT22;10902;48.158;8.634;2024-01-25T08:51:06;5.60;99.90
21481;DHT22;10902;48.158;8.634;2024-01-25T08:53:53;5.60;99.90
21481;DHT22;10902;48.158;8.634;2024-01-25T08:56:38;5.60;99.90
21481;DHT22;10902;48.158;8.634;2024-01-25T08:59:24;5.60;99.90
21481;DHT22;10902;48.158;8.634;2024-01-25T09:02:10;5.60;99.90
21481;DHT22;10902;48.158;8.634;2024-01-25T09:04:56;5.60;99.90
21481;DHT22;10902;48.158;8.634;2024-01-25T09:07:41;5.60;99.90
21481;DHT22;10902;48.158;8.634;2024-01-25T09:10:28;5.70;99.90
21481;DHT22;10902;48.158;8.634;2024-01-25T09:13:13;5.60;99.90
21481;DHT22;10902;48.158;8.634;2024-01-25T09:15:59;5.60;99.90
21481;DHT22;10902;48.158;8.634;2024-01-25T09:18:45;5.70;99.90
21481;DHT22;10902;48.158;8.634;2024-01-25T09:21:30;5.70;99.90
21481;DHT22;10902;48.158;8.634;2024-01-25T09:24:16;5.80;99.90
21481;DHT22;10902;48.158;8.634;2024-01-25T09:27:02;5.80;99.90
21481;DHT22;10902;48.158;8.634;2024-01-25T09:29:47;5.90;99.90
21481;DHT22;10902;48.158;8.634;2024-01-25T09:32:33;5.90;99.90
21481;DHT22;10902;48.158;8.634;2024-01-25T09:35:19;6.00;99.90
21481;DHT22;10902;48.158;8.634;2024-01-25T09:38:05;6.10;99.90
21481;DHT22;10902;48.158;8.634;2024-01-25T09:40:50;6.30;99.90
21481;DHT22;10902;48.158;8.634;2024-01-25T09:43:37;6.40;99.90
21481;DHT22;10902;48.158;8.634;2024-01-25T09:46:23;6.50;99.90
21481;DHT22;10902;48.158;8.634;2024-01-25T09:49:09;6.50;99.90
21481;DHT22;10902;48.158;8.634;2024-01-25T09:51:55;6.60;99.90
21481;DHT22;10902;48.158;8.634;2024-01-25T09:54:41;6.70;99.90
21481;DHT22;10902;48.158;8.634;2024-01-25T09:57:28;6.70;99.90
21481;DHT22;10902;48.158;8.634;2024-01-25T10:00:15;6.70;99.90
21481;DHT22;10902;48.158;8.634;2024-01-25T10:03:01;6.60;99.90
21481;DHT22;10902;48.158;8.634;2024-01-25T10:05:46;6.80;99.90
21481;DHT22;10902;48.158;8.634;2024-01-25T10:08:32;6.80;99.90
21481;DHT22;10902;48.158;8.634;2024-01-25T10:11:17;6.90;99.90
21481;DHT22;10902;48.158;8.634;2024-01-25T10:14:03;6.80;99.90
21481;DHT22;10902;48.158;8.634;2024-01-25T10:16:50;7.20;99.90
21481;DHT22;10902;48.158;8.634;2024-01-25T10:19:35;7.50;99.90
21481;DHT22;10902;48.158;8.634;2024-01-25T10:22:21;7.80;99.90
21481;DHT22;10902;48.158;8.634;2024-01-25T10:25:13;8.00;99.90
21481;DHT22;10902;48.158;8.634;2024-01-25T10:27:59;8.10;99.90
21481;DHT22;10902;48.158;8.634;2024-01-25T10:30:47;8.20;99.90
21481;DHT22;10902;48.158;8.634;2024-01-25T10:33:33;7.80;99.90
21481;DHT22;10902;48.158;8.634;2024-01-25T10:36:23;7.90;99.90
21481;DHT22;10902;48.158;8.634;2024-01-25T10:39:09;7.60;99.90
21481;DHT22;10902;48.158;8.634;2024-01-25T10:41:56;7.80;99.90
21481;DHT22;10902;48.158;8.634;2024-01-25T10:44:41;8.60;99.90
21481;DHT22;10902;48.158;8.634;2024-01-25T10:47:28;8.70;99.90
21481;DHT22;10902;48.158;8.634;2024-01-25T10:50:16;8.90;99.90
21481;DHT22;10902;48.158;8.634;2024-01-25T10:53:02;8.80;99.90
21481;DHT22;10902;48.158;8.634;2024-01-25T10:55:48;9.00;99.90
21481;DHT22;10902;48.158;8.634;2024-01-25T10:58:34;9.00;99.90
21481;DHT22;10902;48.158;8.634;2024-01-25T11:01:23;8.40;99.90
21481;DHT22;10902;48.158;8.634;2024-01-25T11:04:16;8.40;99.90
21481;DHT22;10902;48.158;8.634;2024-01-25T11:07:08;8.60;99.90
21481;DHT22;10902;48.158;8.634;2024-01-25T11:09:55;8.60;99.90
21481;DHT22;10902;48.158;8.634;2024-01-25T11:12:49;8.30;99.90
21481;DHT22;10902;48.158;8.634;2024-01-25T11:15:37;8.40;99.90
21481;DHT22;10902;48.158;8.634;2024-01-25T11:18:25;8.80;99.90
21481;DHT22;10902;48.158;8.634;2024-01-25T11:21:11;8.80;99.90
21481;DHT22;10902;48.158;8.634;2024-01-25T11:24:02;8.80;99.90
21481;DHT22;10902;48.158;8.634;2024-01-25T11:26:48;8.90;99.90
21481;DHT22;10902;48.158;8.634;2024-01-25T11:29:34;9.00;99.90
21481;DHT22;10902;48.158;8.634;2024-01-25T11:32:22;8.90;99.90
21481;DHT22;10902;48.158;8.634;2024-01-25T11:35:08;9.00;99.90
21481;DHT22;10902;48.158;8.634;2024-01-25T11:37:56;9.00;99.90
21481;DHT22;10902;48.158;8.634;2024-01-25T11:40:44;9.20;99.90
21481;DHT22;10902;48.158;8.634;2024-01-25T11:43:30;9.30;99.90
21481;DHT22;10902;48.158;8.634;2024-01-25T11:46:16;9.50;99.90
21481;DHT22;10902;48.158;8.634;2024-01-25T11:49:02;9.50;99.90
21481;DHT22;10902;48.158;8.634;2024-01-25T11:51:47;9.80;99.90
21481;DHT22;10902;48.158;8.634;2024-01-25T11:54:33;9.90;99.90
21481;DHT22;10902;48.158;8.634;2024-01-25T11:57:19;10.10;99.90
21481;DHT22;10902;48.158;8.634;2024-01-25T12:00:05;10.00;99.90
21481;DHT22;10902;48.158;8.634;2024-01-25T12:02:52;9.90;99.90
21481;DHT22;10902;48.158;8.634;2024-01-25T12:05:39;9.60;99.90
21481;DHT22;10902;48.158;8.634;2024-01-25T12:08:25;9.20;99.90
21481;DHT22;10902;48.158;8.634;2024-01-25T12:11:11;9.10;99.90
21481;DHT22;10902;48.158;8.634;2024-01-25T12:13:57;9.10;99.90
21481;DHT22;10902;48.158;8.634;2024-01-25T12:16:43;9.20;99.90
21481;DHT22;10902;48.158;8.634;2024-01-25T12:19:29;9.60;99.90
21481;DHT22;10902;48.158;8.634;2024-01-25T12:22:20;9.50;99.90
21481;DHT22;10902;48.158;8.634;2024-01-25T12:25:07;9.80;99.90
21481;DHT22;10902;48.158;8.634;2024-01-25T12:27:54;10.50;99.90
21481;DHT22;10902;48.158;8.634;2024-01-25T12:30:40;10.70;99.90
21481;DHT22;10902;48.158;8.634;2024-01-25T12:33:26;11.00;99.90
21481;DHT22;10902;48.158;8.634;2024-01-25T12:36:12;10.80;99.90
21481;DHT22;10902;48.158;8.634;2024-01-25T12:38:58;10.60;99.90
21481;DHT22;10902;48.158;8.634;2024-01-25T12:41:44;10.30;99.90
21481;DHT22;10902;48.158;8.634;2024-01-25T12:44:29;9.80;99.90
21481;DHT22;10902;48.158;8.634;2024-01-25T12:47:15;9.60;99.90
21481;DHT22;10902;48.158;8.634;2024-01-25T12:50:00;9.60;99.90
21481;DHT22;10902;48.158;8.634;2024-01-25T12:52:46;9.40;99.90
21481;DHT22;10902;48.158;8.634;2024-01-25T12:55:32;9.30;99.90
21481;DHT22;10902;48.158;8.634;2024-01-25T12:58:18;9.20;99.90
21481;DHT22;10902;48.158;8.634;2024-01-25T13:01:04;9.60;99.90
21481;DHT22;10902;48.158;8.634;2024-01-25T13:03:49;10.40;99.90
21481;DHT22;10902;48.158;8.634;2024-01-25T13:06:35;10.90;99.90
21481;DHT22;10902;48.158;8.634;2024-01-25T13:09:21;11.30;99.90
21481;DHT22;10902;48.158;8.634;2024-01-25T13:12:07;11.60;99.90
21481;DHT22;10902;48.158;8.634;2024-01-25T13:14:52;11.60;99.90
21481;DHT22;10902;48.158;8.634;2024-01-25T13:17:38;11.50;99.90
21481;DHT22;10902;48.158;8.634;2024-01-25T13:20:23;11.30;99.90
21481;DHT22;10902;48.158;8.634;2024-01-25T13:23:09;10.50;99.90
21481;DHT22;10902;48.158;8.634;2024-01-25T13:25:55;10.30;99.90
21481;DHT22;10902;48.158;8.634;2024-01-25T13:28:40;10.00;99.90
21481;DHT22;10902;48.158;8.634;2024-01-25T13:31:26;9.80;99.90
21481;DHT22;10902;48.158;8.634;2024-01-25T13:34:11;9.80;99.90
21481;DHT22;10902;48.158;8.634;2024-01-25T13:36:57;10.40;99.90
21481;DHT22;10902;48.158;8.634;2024-01-25T13:39:43;10.80;99.90
21481;DHT22;10902;48.158;8.634;2024-01-25T13:42:29;11.10;99.90
21481;DHT22;10902;48.158;8.634;2024-01-25T13:45:14;11.10;99.90
21481;DHT22;10902;48.158;8.634;2024-01-25T13:48:00;10.70;99.90
21481;DHT22;10902;48.158;8.634;2024-01-25T13:50:45;11.00;99.90
21481;DHT22;10902;48.158;8.634;2024-01-25T13:53:31;11.40;99.90
21481;DHT22;10902;48.158;8.634;2024-01-25T13:56:17;11.70;99.90
21481;DHT22;10902;48.158;8.634;2024-01-25T13:59:02;12.30;99.90
21481;DHT22;10902;48.158;8.634;2024-01-25T14:01:48;12.20;99.90
21481;DHT22;10902;48.158;8.634;2024-01-25T14:04:34;12.10;99.90
21481;DHT22;10902;48.158;8.634;2024-01-25T14:07:20;12.00;99.90
21481;DHT22;10902;48.158;8.634;2024-01-25T14:10:06;12.00;99.90
21481;DHT22;10902;48.158;8.634;2024-01-25T14:12:52;11.90;99.90
21481;DHT22;10902;48.158;8.634;2024-01-25T14:15:37;11.80;99.90
21481;DHT22;10902;48.158;8.634;2024-01-25T14:18:23;11.50;99.90
21481;DHT22;10902;48.158;8.634;2024-01-25T14:21:08;11.30;99.90
21481;DHT22;10902;48.158;8.634;2024-01-25T14:23:54;11.20;99.90
21481;DHT22;10902;48.158;8.634;2024-01-25T14:26:39;11.10;99.90
21481;DHT22;10902;48.158;8.634;2024-01-25T14:29:25;10.90;99.90
21481;DHT22;10902;48.158;8.634;2024-01-25T14:32:11;10.80;99.90
21481;DHT22;10902;48.158;8.634;2024-01-25T14:34:56;10.70;99.90
21481;DHT22;10902;48.158;8.634;2024-01-25T14:37:42;10.60;99.90
21481;DHT22;10902;48.158;8.634;2024-01-25T14:40:27;10.50;99.90
21481;DHT22;10902;48.158;8.634;2024-01-25T14:43:13;10.40;99.90
21481;DHT22;10902;48.158;8.634;2024-01-25T14:45:59;10.20;99.90
21481;DHT22;10902;48.158;8.634;2024-01-25T14:48:44;10.20;99.90
21481;DHT22;10902;48.158;8.634;2024-01-25T14:51:30;10.20;99.90
21481;DHT22;10902;48.158;8.634;2024-01-25T14:54:16;10.10;99.90
21481;DHT22;10902;48.158;8.634;2024-01-25T14:57:01;9.90;99.90
21481;DHT22;10902;48.158;8.634;2024-01-25T14:59:47;10.00;99.90
21481;DHT22;10902;48.158;8.634;2024-01-25T15:02:33;10.00;99.90
21481;DHT22;10902;48.158;8.634;2024-01-25T15:05:18;9.90;99.90
21481;DHT22;10902;48.158;8.634;2024-01-25T15:08:04;9.80;99.90
21481;DHT22;10902;48.158;8.634;2024-01-25T15:10:50;9.80;99.90
21481;DHT22;10902;48.158;8.634;2024-01-25T15:13:36;9.80;99.90
21481;DHT22;10902;48.158;8.634;2024-01-25T15:16:22;9.70;99.90
21481;DHT22;10902;48.158;8.634;2024-01-25T15:19:08;9.60;99.90
21481;DHT22;10902;48.158;8.634;2024-01-25T15:21:53;9.60;99.90
21481;DHT22;10902;48.158;8.634;2024-01-25T15:24:39;9.40;99.90
21481;DHT22;10902;48.158;8.634;2024-01-25T15:27:24;9.10;99.90
21481;DHT22;10902;48.158;8.634;2024-01-25T15:30:10;9.00;99.90
21481;DHT22;10902;48.158;8.634;2024-01-25T15:32:56;8.90;99.90
21481;DHT22;10902;48.158;8.634;2024-01-25T15:35:41;8.90;99.90
21481;DHT22;10902;48.158;8.634;2024-01-25T15:38:27;8.80;99.90
21481;DHT22;10902;48.158;8.634;2024-01-25T15:41:13;8.70;99.90
21481;DHT22;10902;48.158;8.634;2024-01-25T15:43:58;8.60;99.90
21481;DHT22;10902;48.158;8.634;2024-01-25T15:46:44;8.60;99.90
21481;DHT22;10902;48.158;8.634;2024-01-25T15:49:29;8.50;99.90
21481;DHT22;10902;48.158;8.634;2024-01-25T15:52:15;8.50;99.90
21481;DHT22;10902;48.158;8.634;2024-01-25T15:55:01;8.50;99.90
21481;DHT22;10902;48.158;8.634;2024-01-25T15:57:46;8.40;99.90
21481;DHT22;10902;48.158;8.634;2024-01-25T16:00:32;8.40;99.90
21481;DHT22;10902;48.158;8.634;2024-01-25T16:03:18;8.30;99.90
21481;DHT22;10902;48.158;8.634;2024-01-25T16:06:03;8.30;99.90
21481;DHT22;10902;48.158;8.634;2024-01-25T16:08:49;8.20;99.90
21481;DHT22;10902;48.158;8.634;2024-01-25T16:11:34;8.20;99.90
21481;DHT22;10902;48.158;8.634;2024-01-25T16:14:20;8.20;99.90
21481;DHT22;10902;48.158;8.634;2024-01-25T16:17:06;8.10;99.90
21481;DHT22;10902;48.158;8.634;2024-01-25T16:19:54;8.10;99.90
21481;DHT22;10902;48.158;8.634;2024-01-25T16:22:39;8.00;99.90
21481;DHT22;10902;48.158;8.634;2024-01-25T16:25:25;8.00;99.90
21481;DHT22;10902;48.158;8.634;2024-01-25T16:28:10;7.90;99.90
21481;DHT22;10902;48.158;8.634;2024-01-25T16:30:56;7.90;99.90
21481;DHT22;10902;48.158;8.634;2024-01-25T16:33:42;7.90;99.90
21481;DHT22;10902;48.158;8.634;2024-01-25T16:36:27;7.90;99.90
21481;DHT22;10902;48.158;8.634;2024-01-25T16:39:13;7.80;99.90
21481;DHT22;10902;48.158;8.634;2024-01-25T16:41:59;7.80;99.90
21481;DHT22;10902;48.158;8.634;2024-01-25T16:44:44;7.70;99.90
21481;DHT22;10902;48.158;8.634;2024-01-25T16:47:30;7.70;99.90
21481;DHT22;10902;48.158;8.634;2024-01-25T16:50:15;7.80;99.90
21481;DHT22;10902;48.158;8.634;2024-01-25T16:53:01;7.80;99.90
21481;DHT22;10902;48.158;8.634;2024-01-25T16:55:47;7.60;99.90
21481;DHT22;10902;48.158;8.634;2024-01-25T16:58:34;7.50;99.90
21481;DHT22;10902;48.158;8.634;2024-01-25T17:01:20;7.60;99.90
21481;DHT22;10902;48.158;8.634;2024-01-25T17:04:06;7.70;99.90
21481;DHT22;10902;48.158;8.634;2024-01-25T17:06:53;7.70;99.90
21481;DHT22;10902;48.158;8.634;2024-01-25T17:09:38;7.70;99.90
21481;DHT22;10902;48.158;8.634;2024-01-25T17:12:24;7.60;99.90
21481;DHT22;10902;48.158;8.634;2024-01-25T17:15:10;7.60;99.90
21481;DHT22;10902;48.158;8.634;2024-01-25T17:17:56;7.50;99.90
21481;DHT22;10902;48.158;8.634;2024-01-25T17:20:41;7.60;99.90
21481;DHT22;10902;48.158;8.634;2024-01-25T17:23:27;7.50;99.90
21481;DHT22;10902;48.158;8.634;2024-01-25T17:26:12;7.50;99.90
21481;DHT22;10902;48.158;8.634;2024-01-25T17:28:58;7.40;99.90
21481;DHT22;10902;48.158;8.634;2024-01-25T17:31:43;7.30;99.90
21481;DHT22;10902;48.158;8.634;2024-01-25T17:34:29;7.30;99.90
21481;DHT22;10902;48.158;8.634;2024-01-25T17:37:15;7.30;99.90
21481;DHT22;10902;48.158;8.634;2024-01-25T17:40:00;7.30;99.90
21481;DHT22;10902;48.158;8.634;2024-01-25T17:42:46;7.30;99.90